Time;durP1;ratioP1;P1;durP2;ratioP2;P2;SDS_P1;SDS_P2;PMS_P1;PMS_P2;Temp;Humidity;BMP_temperature;BMP_pressure;BME280_temperature;BME280_humidity;BME280_pressure;Samples;Min_cycle;Max_cycle;Signal;HPM_P1;HPM_P2
2022/11/05 00:10:29;;;;;;;8.02;3.75;;;7.70;99.90;;;;;;5038799;28;20060;-75
2022/11/05 00:18:26;;;;;;;5.65;4.28;;;7.60;99.90;;;;;;5041286;28;20048;-76
2022/11/05 00:20:52;;;;;;;4.10;3.22;;;7.50;99.90;;;;;;5039446;28;20130;-75
2022/11/05 00:26:04;;;;;;;4.90;2.67;;;7.40;99.90;;;;;;5041353;28;20132;-75
2022/11/05 00:28:30;;;;;;;5.93;3.25;;;7.40;99.90;;;;;;5042621;28;20139;-75
2022/11/05 00:31:02;;;;;;;5.13;3.47;;;7.30;99.90;;;;;;5045113;28;20117;-74
2022/11/05 00:33:28;;;;;;;5.45;2.95;;;7.30;99.90;;;;;;5041531;28;20048;-74
2022/11/05 00:35:54;;;;;;;9.77;3.97;;;7.30;99.90;;;;;;5042269;28;20126;-74
2022/11/05 00:38:19;;;;;;;4.68;3.00;;;7.30;99.90;;;;;;5046685;28;20049;-75
2022/11/05 00:40:45;;;;;;;8.73;3.38;;;7.30;99.90;;;;;;5043136;28;20051;-75
2022/11/05 00:45:55;;;;;;;7.90;4.50;;;7.20;99.90;;;;;;5048183;28;20049;-75
2022/11/05 00:51:05;;;;;;;4.60;3.28;;;7.10;99.90;;;;;;5052081;28;20059;-75
2022/11/05 00:53:32;;;;;;;6.55;2.70;;;7.70;99.90;;;;;;5052340;28;20058;-75
2022/11/05 00:55:57;;;;;;;6.88;3.35;;;7.10;99.90;;;;;;5052092;28;20714;-75
2022/11/05 00:58:23;;;;;;;4.55;2.75;;;7.10;99.90;;;;;;5052181;28;20162;-75
2022/11/05 01:00:52;;;;;;;5.50;3.03;;;7.10;99.90;;;;;;5050721;28;20492;-76
2022/11/05 01:03:23;;;;;;;5.90;2.35;;;7.10;99.90;;;;;;5040537;28;20045;-76
2022/11/05 01:05:53;;;;;;;9.85;2.90;;;7.10;99.90;;;;;;5049973;28;20052;-76
2022/11/05 01:08:20;;;;;;;3.78;2.53;;;7.10;99.90;;;;;;5049632;28;20049;-76
2022/11/05 01:10:51;;;;;;;4.57;2.90;;;7.00;99.90;;;;;;5051046;28;20530;-76
2022/11/05 01:13:20;;;;;;;4.40;2.78;;;7.00;99.90;;;;;;5043994;28;20119;-76
2022/11/05 01:15:47;;;;;;;4.93;2.58;;;7.00;99.90;;;;;;5041625;28;20087;-75
2022/11/05 01:18:13;;;;;;;5.88;2.15;;;6.90;99.90;;;;;;5046749;28;20531;-75
2022/11/05 01:20:39;;;;;;;2.40;2.20;;;6.90;99.90;;;;;;5044418;28;20044;-76
2022/11/05 01:23:04;;;;;;;4.97;2.53;;;7.00;99.90;;;;;;5046620;28;20047;-76
2022/11/05 01:25:30;;;;;;;4.68;2.40;;;6.90;99.90;;;;;;5051647;28;20040;-76
2022/11/05 01:27:56;;;;;;;2.95;2.05;;;6.80;99.90;;;;;;5044502;28;20677;-75
2022/11/05 01:30:22;;;;;;;4.03;2.20;;;6.90;99.90;;;;;;5042449;28;20132;-75
2022/11/05 01:32:48;;;;;;;3.42;2.40;;;6.80;99.90;;;;;;5047313;28;20853;-75
2022/11/05 01:35:15;;;;;;;4.80;2.22;;;6.90;99.90;;;;;;5043926;28;20140;-75
2022/11/05 01:37:41;;;;;;;3.45;1.85;;;6.90;99.90;;;;;;5046657;28;20123;-76
2022/11/05 01:40:12;;;;;;;4.45;2.13;;;6.90;99.90;;;;;;5049852;28;20048;-76
2022/11/05 01:42:38;;;;;;;5.07;2.10;;;6.90;99.90;;;;;;5048156;28;20079;-76
2022/11/05 01:45:11;;;;;;;6.20;2.20;;;6.90;99.90;;;;;;5050384;28;20045;-76
2022/11/05 01:47:53;;;;;;;;;;;6.90;99.90;;;;;;5048270;28;20102;-76
2022/11/05 01:50:30;;;;;;;2.72;1.60;;;6.80;99.90;;;;;;5051703;28;20636;-76
2022/11/05 01:53:25;;;;;;;3.60;2.13;;;6.80;99.90;;;;;;5048999;28;20052;-76
2022/11/05 01:55:57;;;;;;;2.53;2.00;;;6.80;99.90;;;;;;5045358;28;20045;-76
2022/11/05 01:58:26;;;;;;;3.83;1.92;;;6.80;99.90;;;;;;5052815;28;20060;-76
2022/11/05 02:00:53;;;;;;;6.28;2.40;;;6.80;99.90;;;;;;5048904;28;20044;-77
2022/11/05 02:03:19;;;;;;;3.92;1.75;;;6.80;99.90;;;;;;5055818;28;20450;-76
2022/11/05 02:05:47;;;;;;;4.22;2.38;;;6.80;99.90;;;;;;5040909;28;20069;-76
2022/11/05 02:08:41;;;;;;;3.92;1.98;;;6.70;99.90;;;;;;5040817;28;20044;-76
2022/11/05 02:11:07;;;;;;;2.85;1.85;;;6.70;99.90;;;;;;5048796;28;20053;-76
2022/11/05 02:13:34;;;;;;;3.55;2.50;;;6.90;99.90;;;;;;5047823;28;20124;-76
2022/11/05 02:16:27;;;;;;;6.97;2.72;;;6.60;99.90;;;;;;5049096;28;20667;-76
2022/11/05 02:19:05;;;;;;;6.22;2.42;;;6.60;99.90;;;;;;5046228;28;20059;-76
2022/11/05 02:22:01;;;;;;;3.63;2.70;;;6.60;99.90;;;;;;5048075;28;20048;-76
2022/11/05 02:24:51;;;;;;;3.47;2.15;;;6.60;99.90;;;;;;5045529;28;20053;-77
2022/11/05 02:27:40;;;;;;;4.50;3.20;;;6.50;99.90;;;;;;5043449;28;20679;-77
2022/11/05 02:30:23;;;;;;;4.22;2.75;;;6.60;99.90;;;;;;5044308;28;20535;-76
2022/11/05 02:33:17;;;;;;;6.32;4.80;;;6.40;99.90;;;;;;5050329;28;20186;-76
2022/11/05 02:35:59;;;;;;;3.75;3.28;;;6.40;99.90;;;;;;5032168;28;20059;-75
2022/11/05 02:38:38;;;;;;;7.32;3.78;;;6.40;99.90;;;;;;5051665;28;20048;-76
2022/11/05 02:41:07;;;;;;;5.68;4.45;;;6.30;99.90;;;;;;5052890;28;20059;-76
2022/11/05 02:43:45;;;;;;;5.75;3.30;;;6.30;99.90;;;;;;5050890;28;20057;-76
2022/11/05 02:46:44;;;;;;;4.03;3.13;;;6.30;99.90;;;;;;5040507;28;20040;-76
2022/11/05 02:49:34;;;;;;;7.75;4.57;;;6.30;99.90;;;;;;5042933;28;20052;-76
2022/11/05 02:52:08;;;;;;;6.35;4.07;;;6.30;99.90;;;;;;5047853;28;20041;-76
2022/11/05 02:54:48;;;;;;;4.35;3.42;;;6.30;99.90;;;;;;5053462;28;20906;-77
2022/11/05 02:57:17;;;;;;;4.10;3.55;;;6.30;99.90;;;;;;5055350;28;20174;-76
2022/11/05 02:59:43;;;;;;;3.47;3.17;;;6.40;99.90;;;;;;5042955;28;20139;-76
2022/11/05 03:02:09;;;;;;;4.60;2.33;;;6.30;99.90;;;;;;5049990;28;20055;-76
2022/11/05 03:04:34;;;;;;;2.97;2.72;;;6.40;99.90;;;;;;5046388;28;20139;-77
2022/11/05 03:07:26;;;;;;;3.65;2.40;;;6.30;99.90;;;;;;5040246;28;21609;-76
2022/11/05 03:10:14;;;;;;;5.40;2.88;;;6.30;99.90;;;;;;5043944;28;20047;-76
2022/11/05 03:12:58;;;;;;;4.65;2.50;;;6.30;99.90;;;;;;5049651;28;20044;-77
2022/11/05 03:15:26;;;;;;;4.65;2.53;;;6.30;99.90;;;;;;5041044;28;20048;-76
2022/11/05 03:18:10;;;;;;;2.35;2.05;;;6.40;99.90;;;;;;5048394;28;20044;-77
2022/11/05 03:20:43;;;;;;;4.60;2.85;;;6.30;99.90;;;;;;5041104;28;20630;-77
2022/11/05 03:23:26;;;;;;;3.67;2.72;;;6.60;99.90;;;;;;5046465;28;20053;-76
2022/11/05 03:26:03;;;;;;;3.40;1.88;;;6.30;99.90;;;;;;5042748;28;20041;-77
2022/11/05 03:28:34;;;;;;;5.85;2.53;;;6.20;99.90;;;;;;5047381;28;20810;-77
2022/11/05 03:31:01;;;;;;;4.90;2.50;;;6.20;99.90;;;;;;5046364;28;20056;-77
2022/11/05 03:33:31;;;;;;;2.22;1.92;;;6.30;99.90;;;;;;5051227;28;20057;-76
2022/11/05 03:36:04;;;;;;;3.83;2.00;;;6.20;99.90;;;;;;5049090;28;20148;-76
2022/11/05 03:38:32;;;;;;;;;;;6.20;99.90;;;;;;5048297;28;20084;-76
2022/11/05 03:41:03;;;;;;;4.80;2.47;;;6.20;99.90;;;;;;5041201;28;20001;-76
2022/11/05 03:43:33;;;;;;;3.28;2.50;;;6.20;99.90;;;;;;5041210;28;20052;-76
2022/11/05 03:46:08;;;;;;;12.18;2.42;;;6.60;99.90;;;;;;5050136;28;20048;-77
2022/11/05 03:48:40;;;;;;;4.40;2.50;;;6.20;99.90;;;;;;5049931;28;21322;-77
2022/11/05 03:51:11;;;;;;;6.70;2.30;;;6.30;99.90;;;;;;5057136;28;20070;-77
2022/11/05 03:53:45;;;;;;;3.92;2.42;;;6.30;99.90;;;;;;5040596;28;20045;-77
2022/11/05 03:56:24;;;;;;;5.85;2.42;;;6.60;99.90;;;;;;5052419;28;20044;-77
2022/11/05 03:58:50;;;;;;;2.78;2.47;;;6.20;99.90;;;;;;5045487;28;20906;-76
2022/11/05 04:01:16;;;;;;;4.10;2.17;;;6.30;99.90;;;;;;5041171;28;20052;-77
2022/11/05 04:03:42;;;;;;;3.70;2.00;;;6.50;99.90;;;;;;5047621;28;20103;-77
2022/11/05 04:14:42;;;;;;;2.55;2.28;;;6.30;99.90;;;;;;5010447;28;20622;-77
2022/11/05 04:17:10;;;;;;;2.63;2.42;;;6.30;99.90;;;;;;5019825;28;20056;-78
2022/11/05 04:25:11;;;;;;;4.63;2.53;;;6.40;99.90;;;;;;5047906;28;20052;-77
2022/11/05 04:27:37;;;;;;;5.75;2.85;;;6.40;99.90;;;;;;5048018;28;20057;-77
2022/11/05 04:30:19;;;;;;;6.25;3.00;;;6.40;99.90;;;;;;5049008;28;20049;-78
2022/11/05 04:32:56;;;;;;;3.00;2.70;;;6.40;99.90;;;;;;5042092;28;20137;-77
2022/11/05 04:35:22;;;;;;;2.95;2.22;;;6.40;99.90;;;;;;5047867;28;20044;-77
2022/11/05 04:37:48;;;;;;;4.57;3.03;;;6.40;99.90;;;;;;5050574;28;20699;-77
2022/11/05 04:40:13;;;;;;;4.80;2.78;;;6.40;99.90;;;;;;5040232;28;20842;-76
2022/11/05 04:42:39;;;;;;;3.05;2.17;;;6.40;99.90;;;;;;5040365;28;20053;-76
2022/11/05 04:45:05;;;;;;;2.60;2.28;;;6.40;99.90;;;;;;5043702;28;20045;-78
2022/11/05 04:47:30;;;;;;;3.88;2.35;;;6.40;99.90;;;;;;5054553;28;20435;-77
2022/11/05 04:49:56;;;;;;;7.97;3.30;;;6.40;99.90;;;;;;5049942;28;20047;-76
2022/11/05 04:52:21;;;;;;;3.75;2.50;;;6.40;99.90;;;;;;5051620;28;20045;-76
2022/11/05 04:54:47;;;;;;;3.85;2.50;;;6.40;99.90;;;;;;5046979;28;20052;-77
2022/11/05 04:57:13;;;;;;;3.78;2.10;;;6.30;99.90;;;;;;5042336;28;20159;-77
2022/11/05 04:59:38;;;;;;;5.53;2.70;;;6.30;99.90;;;;;;5044123;28;20143;-77
2022/11/05 05:02:04;;;;;;;3.97;2.53;;;6.30;99.90;;;;;;5055556;28;20047;-77
2022/11/05 05:04:30;;;;;;;3.33;3.00;;;6.30;99.90;;;;;;5043594;28;20048;-77
2022/11/05 05:06:55;;;;;;;5.20;3.00;;;6.30;99.90;;;;;;5049615;28;20495;-77
2022/11/05 05:09:21;;;;;;;4.00;3.33;;;6.40;99.90;;;;;;5049480;28;20056;-77
2022/11/05 05:11:47;;;;;;;6.28;3.17;;;6.30;99.90;;;;;;5051241;28;20052;-77
2022/11/05 05:14:12;;;;;;;4.88;2.92;;;6.50;99.90;;;;;;5043657;28;20288;-78
2022/11/05 05:16:38;;;;;;;6.20;3.40;;;6.30;99.90;;;;;;5044647;28;20767;-77
2022/11/05 05:19:04;;;;;;;3.90;2.92;;;6.30;99.90;;;;;;5048330;28;20052;-77
2022/11/05 05:21:39;;;;;;;6.25;3.88;;;6.30;99.90;;;;;;5050150;28;20056;-76
2022/11/05 05:24:07;;;;;;;4.20;3.45;;;6.40;99.90;;;;;;5050284;28;20053;-77
2022/11/05 05:26:37;;;;;;;5.32;3.03;;;6.30;99.90;;;;;;5049697;28;20144;-77
2022/11/05 05:29:04;;;;;;;6.53;3.40;;;6.30;99.90;;;;;;5050995;28;20048;-78
2022/11/05 05:31:29;;;;;;;7.00;4.05;;;6.30;99.90;;;;;;5053969;28;20053;-76
2022/11/05 05:33:55;;;;;;;5.43;4.03;;;6.30;99.90;;;;;;5047845;28;20048;-77
2022/11/05 05:36:22;;;;;;;5.45;3.33;;;6.30;99.90;;;;;;5052088;28;20469;-77
2022/11/05 05:38:47;;;;;;;6.20;3.33;;;6.30;99.90;;;;;;5046663;28;20083;-78
2022/11/05 05:41:13;;;;;;;6.15;4.25;;;6.30;99.90;;;;;;5051446;28;20132;-77
2022/11/05 05:43:39;;;;;;;6.22;3.90;;;6.20;99.90;;;;;;5048877;28;20040;-77
2022/11/05 05:46:07;;;;;;;5.03;3.35;;;6.20;99.90;;;;;;5047911;28;20131;-77
2022/11/05 05:48:33;;;;;;;5.75;3.97;;;6.20;99.90;;;;;;5049486;28;20065;-77
2022/11/05 05:51:07;;;;;;;4.10;3.50;;;6.20;99.90;;;;;;5045432;28;20080;-77
2022/11/05 05:53:33;;;;;;;12.23;5.80;;;6.20;99.90;;;;;;5053220;28;20087;-78
2022/11/05 05:55:59;;;;;;;6.85;3.67;;;6.20;99.90;;;;;;5053408;28;20143;-77
2022/11/05 05:58:26;;;;;;;5.00;3.58;;;6.20;99.90;;;;;;5041093;28;20121;-78
2022/11/05 06:00:53;;;;;;;5.22;4.13;;;6.30;99.90;;;;;;5054920;28;20114;-78
2022/11/05 06:03:18;;;;;;;5.55;4.10;;;6.10;99.90;;;;;;5055569;28;20044;-77
2022/11/05 06:05:44;;;;;;;4.85;4.22;;;6.10;99.90;;;;;;5047006;28;20049;-76
2022/11/05 06:08:10;;;;;;;4.88;3.58;;;6.10;99.90;;;;;;5044959;28;20493;-77
2022/11/05 06:10:36;;;;;;;4.00;3.63;;;6.10;99.90;;;;;;5057052;28;20048;-77
2022/11/05 06:13:02;;;;;;;6.32;4.10;;;6.10;99.90;;;;;;5058884;28;20048;-77
2022/11/05 06:15:28;;;;;;;8.10;4.57;;;6.10;99.90;;;;;;5042642;28;20780;-78
2022/11/05 06:17:53;;;;;;;4.85;4.15;;;6.10;99.90;;;;;;5041652;28;20053;-76
2022/11/05 06:20:19;;;;;;;5.47;4.28;;;6.10;99.90;;;;;;5043252;28;20080;-77
2022/11/05 06:22:53;;;;;;;7.00;4.13;;;6.10;99.90;;;;;;5043671;28;20045;-77
2022/11/05 06:25:19;;;;;;;5.18;4.45;;;6.50;99.90;;;;;;5043803;28;20055;-76
2022/11/05 06:27:45;;;;;;;6.90;4.53;;;6.20;99.90;;;;;;5057948;28;20070;-77
2022/11/05 06:30:11;;;;;;;8.48;5.18;;;6.20;99.90;;;;;;5049988;28;20045;-77
2022/11/05 06:32:36;;;;;;;6.93;4.60;;;6.20;99.90;;;;;;5051886;28;20067;-77
2022/11/05 06:35:02;;;;;;;5.57;4.60;;;6.30;99.90;;;;;;5039319;28;20049;-76
2022/11/05 06:37:32;;;;;;;5.10;4.57;;;6.30;99.90;;;;;;5042547;28;20567;-77
2022/11/05 06:39:58;;;;;;;7.18;4.53;;;6.40;99.90;;;;;;5045051;28;20535;-76
2022/11/05 06:42:23;;;;;;;11.98;5.57;;;6.30;99.90;;;;;;5053395;28;20048;-77
2022/11/05 06:44:49;;;;;;;6.38;5.03;;;6.40;99.90;;;;;;5050999;28;20115;-76
2022/11/05 06:47:14;;;;;;;5.68;3.85;;;6.80;99.90;;;;;;5050182;28;20048;-76
2022/11/05 06:49:40;;;;;;;7.75;5.00;;;6.30;99.90;;;;;;5050823;28;20040;-76
2022/11/05 06:52:06;;;;;;;7.13;5.20;;;6.30;99.90;;;;;;5045197;28;20056;-77
2022/11/05 06:54:31;;;;;;;8.10;4.82;;;6.20;99.90;;;;;;5051788;28;20048;-77
2022/11/05 06:56:57;;;;;;;9.95;5.10;;;6.30;99.90;;;;;;5045126;28;20041;-77
2022/11/05 06:59:24;;;;;;;5.82;4.50;;;6.20;99.90;;;;;;5045938;28;20076;-77
2022/11/05 07:01:49;;;;;;;6.20;4.65;;;6.50;99.90;;;;;;5045960;28;20194;-76
2022/11/05 07:04:15;;;;;;;9.02;4.22;;;6.30;99.90;;;;;;5046383;28;20053;-76
2022/11/05 07:06:41;;;;;;;5.28;4.82;;;6.30;99.90;;;;;;5046919;28;20458;-77
2022/11/05 07:09:06;;;;;;;6.95;4.57;;;6.20;99.90;;;;;;5045646;28;20133;-76
2022/11/05 07:11:32;;;;;;;6.93;4.18;;;6.20;99.90;;;;;;5046025;28;20049;-76
2022/11/05 07:13:59;;;;;;;5.10;3.83;;;6.20;99.90;;;;;;5044382;28;20094;-77
2022/11/05 07:16:25;;;;;;;6.32;4.13;;;6.30;99.90;;;;;;5064744;28;20130;-77
2022/11/05 07:18:51;;;;;;;7.50;4.60;;;6.30;99.90;;;;;;5055506;28;20048;-78
2022/11/05 07:21:18;;;;;;;3.97;3.63;;;6.30;99.90;;;;;;5045524;28;20704;-76
2022/11/05 07:23:44;;;;;;;7.32;4.82;;;6.30;99.90;;;;;;5041862;28;20053;-78
2022/11/05 07:26:09;;;;;;;5.57;5.03;;;6.40;99.90;;;;;;5043589;28;20056;-78
2022/11/05 07:28:35;;;;;;;7.35;4.18;;;6.40;99.90;;;;;;5049935;28;20075;-78
2022/11/05 07:31:01;;;;;;;4.18;3.65;;;6.40;99.90;;;;;;5045346;28;20040;-78
2022/11/05 07:33:27;;;;;;;5.63;4.28;;;6.40;99.90;;;;;;5042486;28;20045;-77
2022/11/05 07:35:55;;;;;;;7.22;4.82;;;6.40;99.90;;;;;;5043723;28;20556;-77
2022/11/05 07:38:21;;;;;;;7.40;4.70;;;6.50;99.90;;;;;;5041002;28;20045;-78
2022/11/05 07:40:47;;;;;;;7.07;4.63;;;6.50;99.90;;;;;;5040133;28;20051;-78
2022/11/05 07:43:12;;;;;;;5.55;4.05;;;6.50;99.90;;;;;;5046169;28;20063;-77
2022/11/05 07:45:38;;;;;;;5.70;4.28;;;6.60;99.90;;;;;;5050911;28;20083;-77
2022/11/05 07:48:04;;;;;;;7.05;4.70;;;6.60;99.90;;;;;;5052592;28;20489;-78
2022/11/05 07:50:35;;;;;;;5.45;4.20;;;6.60;99.90;;;;;;5046963;28;20044;-77
2022/11/05 07:53:02;;;;;;;6.47;4.00;;;6.70;99.90;;;;;;5048062;28;20226;-77
2022/11/05 07:55:28;;;;;;;7.13;4.50;;;6.50;99.90;;;;;;5045924;28;20151;-76
2022/11/05 07:57:54;;;;;;;6.55;4.82;;;6.80;99.90;;;;;;5058433;28;20053;-79
2022/11/05 08:00:23;;;;;;;4.55;4.13;;;6.80;99.90;;;;;;5037093;28;20049;-78
2022/11/05 08:03:16;;;;;;;4.97;4.43;;;6.90;99.90;;;;;;5053758;28;20149;-77
2022/11/05 08:05:45;;;;;;;9.73;4.93;;;6.90;99.90;;;;;;5049478;28;20049;-77
2022/11/05 08:08:16;;;;;;;4.90;3.90;;;7.00;99.90;;;;;;5048335;28;20053;-78
2022/11/05 08:10:41;;;;;;;6.35;4.07;;;7.00;99.90;;;;;;5051043;28;20048;-78
2022/11/05 08:13:08;;;;;;;7.82;4.30;;;7.10;99.90;;;;;;5045524;28;20048;-78
2022/11/05 08:15:34;;;;;;;5.15;4.65;;;7.10;99.90;;;;;;5043219;28;20044;-76
2022/11/05 08:18:02;;;;;;;5.72;4.65;;;7.30;99.90;;;;;;5042381;28;20675;-77
2022/11/05 08:20:28;;;;;;;6.18;4.20;;;7.50;99.90;;;;;;5041819;28;20051;-77
2022/11/05 08:22:55;;;;;;;6.18;4.47;;;7.30;99.90;;;;;;5040728;28;20041;-78
2022/11/05 08:25:21;;;;;;;5.38;4.47;;;7.70;99.90;;;;;;5038924;28;21102;-77
2022/11/05 08:27:53;;;;;;;5.22;4.32;;;7.50;99.90;;;;;;5044466;28;20468;-77
2022/11/05 08:30:19;;;;;;;9.93;5.05;;;7.60;99.90;;;;;;5039862;28;20052;-77
2022/11/05 08:32:44;;;;;;;8.85;4.65;;;7.60;99.90;;;;;;5045760;28;20104;-77
2022/11/05 08:35:10;;;;;;;6.35;4.38;;;7.70;99.90;;;;;;5042566;28;20080;-77
2022/11/05 08:37:36;;;;;;;5.07;4.28;;;7.80;99.90;;;;;;5045045;28;20051;-77
2022/11/05 08:40:01;;;;;;;5.18;3.90;;;7.90;99.90;;;;;;5047089;28;20052;-77
2022/11/05 08:42:27;;;;;;;7.55;4.32;;;8.00;99.90;;;;;;5042535;28;20056;-77
2022/11/05 08:44:53;;;;;;;6.72;3.70;;;8.20;99.90;;;;;;5040805;28;20045;-79
2022/11/05 08:47:18;;;;;;;6.47;4.28;;;8.30;99.90;;;;;;5042787;28;20114;-77
2022/11/05 08:49:44;;;;;;;5.57;4.57;;;8.80;99.90;;;;;;5047142;28;20049;-77
2022/11/05 08:52:10;;;;;;;6.75;3.88;;;8.40;99.90;;;;;;5037889;28;20051;-77
2022/11/05 08:54:35;;;;;;;6.45;4.20;;;8.50;99.90;;;;;;5043095;28;20059;-77
2022/11/05 08:57:01;;;;;;;5.32;3.92;;;8.60;99.90;;;;;;5043323;28;20055;-76
2022/11/05 08:59:28;;;;;;;6.35;4.28;;;8.60;99.90;;;;;;5050343;28;20037;-76
2022/11/05 09:01:54;;;;;;;5.13;4.57;;;8.70;99.90;;;;;;5039655;28;20064;-76
2022/11/05 09:04:20;;;;;;;5.93;4.05;;;8.80;99.90;;;;;;5046920;28;20072;-76
2022/11/05 09:06:45;;;;;;;4.55;4.07;;;8.80;99.90;;;;;;5046982;28;20063;-78
2022/11/05 09:09:11;;;;;;;4.95;3.65;;;8.90;99.90;;;;;;5046095;28;20065;-77
2022/11/05 09:11:36;;;;;;;9.98;3.60;;;9.00;99.90;;;;;;5044101;28;20606;-76
2022/11/05 09:14:02;;;;;;;5.75;3.90;;;9.00;99.90;;;;;;5049100;28;20079;-77
2022/11/05 09:16:28;;;;;;;5.68;3.88;;;9.10;99.90;;;;;;5043485;28;20095;-76
2022/11/05 09:18:55;;;;;;;6.93;3.80;;;9.20;99.90;;;;;;5047409;28;20049;-76
2022/11/05 09:21:21;;;;;;;14.77;3.80;;;9.20;99.90;;;;;;5048455;28;20051;-76
2022/11/05 09:23:47;;;;;;;4.35;3.45;;;9.30;99.90;;;;;;5054214;28;20040;-76
2022/11/05 09:26:13;;;;;;;5.43;3.22;;;9.40;99.90;;;;;;5050846;28;20557;-77
2022/11/05 09:28:39;;;;;;;5.68;3.45;;;9.50;99.90;;;;;;5050050;28;20041;-78
2022/11/05 09:31:07;;;;;;;3.30;2.92;;;9.50;99.90;;;;;;5048284;28;20131;-77
2022/11/05 09:33:35;;;;;;;4.93;3.25;;;9.50;99.90;;;;;;5044300;28;20523;-76
2022/11/05 09:36:00;;;;;;;4.88;3.42;;;9.70;99.90;;;;;;5050421;28;20040;-77
2022/11/05 09:38:26;;;;;;;8.63;3.63;;;9.70;99.90;;;;;;5045542;28;20103;-77
2022/11/05 09:41:22;;;;;;;5.55;3.47;;;9.80;99.90;;;;;;5048991;28;20041;-77
2022/11/05 09:43:54;;;;;;;4.53;3.53;;;9.80;99.90;;;;;;5044765;28;20064;-77
2022/11/05 09:46:24;;;;;;;3.45;2.90;;;9.90;99.90;;;;;;5055260;28;20041;-77
2022/11/05 09:49:03;;;;;;;4.65;2.60;;;10.00;99.90;;;;;;5051781;28;20083;-76
2022/11/05 09:51:30;;;;;;;3.90;3.20;;;10.10;99.90;;;;;;5045716;28;20048;-77
2022/11/05 09:54:00;;;;;;;3.97;2.80;;;10.20;99.90;;;;;;5050694;28;20048;-76
2022/11/05 09:56:29;;;;;;;5.85;2.67;;;10.30;99.90;;;;;;5050230;28;20041;-76
2022/11/05 09:59:03;;;;;;;6.18;3.17;;;10.40;99.90;;;;;;5050888;28;20124;-76
2022/11/05 10:01:33;;;;;;;4.35;2.85;;;10.40;99.90;;;;;;5049900;28;20074;-76
2022/11/05 10:04:04;;;;;;;3.70;2.50;;;10.50;99.90;;;;;;5050802;28;20056;-77
2022/11/05 10:06:30;;;;;;;5.78;2.45;;;10.60;99.90;;;;;;5050356;28;20060;-76
2022/11/05 10:09:10;;;;;;;4.38;2.47;;;10.70;99.90;;;;;;5045953;28;20048;-76
2022/11/05 10:12:10;;;;;;;6.63;2.90;;;10.70;99.90;;;;;;5053309;28;20139;-77
2022/11/05 10:14:43;;;;;;;6.43;2.42;;;10.70;99.90;;;;;;5035357;28;20164;-77
2022/11/05 10:17:24;;;;;;;3.10;2.80;;;10.80;99.90;;;;;;5047062;28;20048;-77
2022/11/05 10:20:09;;;;;;;2.97;2.15;;;10.90;99.90;;;;;;5053135;28;20559;-76
2022/11/05 10:22:36;;;;;;;4.25;2.42;;;11.00;99.90;;;;;;5049742;28;20059;-76
2022/11/05 10:25:15;;;;;;;4.82;2.50;;;11.00;99.90;;;;;;5054426;28;20118;-76
2022/11/05 10:27:45;;;;;;;3.97;2.50;;;11.10;99.90;;;;;;5054981;28;20443;-76
2022/11/05 10:30:13;;;;;;;4.43;1.90;;;11.20;99.90;;;;;;5053986;28;20156;-76
2022/11/05 10:32:41;;;;;;;6.20;2.38;;;11.20;99.90;;;;;;5054201;28;20076;-77
2022/11/05 10:35:17;;;;;;;8.65;2.40;;;11.30;99.90;;;;;;5047483;28;20076;-76
2022/11/05 10:37:50;;;;;;;4.63;2.30;;;11.40;99.90;;;;;;5048092;28;20049;-76
2022/11/05 10:40:44;;;;;;;5.75;2.38;;;11.40;99.90;;;;;;5050317;28;20057;-76
2022/11/05 10:43:43;;;;;;;3.88;2.10;;;11.50;99.90;;;;;;5052411;28;20040;-76
2022/11/05 10:46:37;;;;;;;6.50;1.95;;;11.70;99.90;;;;;;5041085;28;20152;-76
2022/11/05 10:49:17;;;;;;;;;;;11.70;99.90;;;;;;5049193;28;20046;-76
2022/11/05 10:51:43;;;;;;;5.65;2.20;;;11.70;99.90;;;;;;5052464;28;20080;-77
2022/11/05 10:54:20;;;;;;;7.90;2.10;;;11.80;99.90;;;;;;5056027;28;20052;-77
2022/11/05 10:56:46;;;;;;;2.33;1.83;;;11.90;99.90;;;;;;5046686;28;20040;-76
2022/11/05 10:59:21;;;;;;;5.95;2.20;;;12.00;99.90;;;;;;5048373;28;20052;-77
2022/11/05 11:02:14;;;;;;;2.92;2.72;;;12.00;99.90;;;;;;5045870;28;20189;-77
2022/11/05 11:04:40;;;;;;;5.27;2.13;;;12.00;99.90;;;;;;5043173;28;20593;-76
2022/11/05 11:07:21;;;;;;;2.55;2.03;;;12.10;99.90;;;;;;5047892;28;20053;-79
2022/11/05 11:09:48;;;;;;;2.28;1.20;;;12.20;99.90;;;;;;5047010;28;20049;-77
2022/11/05 11:12:24;;;;;;;2.45;1.70;;;12.30;99.90;;;;;;5054135;28;20078;-76
2022/11/05 11:15:01;;;;;;;2.83;1.70;;;12.30;99.90;;;;;;5040609;28;20127;-76
2022/11/05 11:17:29;;;;;;;4.97;2.70;;;12.30;99.90;;;;;;5050113;28;20060;-76
2022/11/05 11:20:19;;;;;;;6.40;1.92;;;12.30;99.90;;;;;;5051569;28;20051;-76
2022/11/05 11:23:12;;;;;;;5.95;2.38;;;12.30;99.90;;;;;;5050776;28;20053;-76
2022/11/05 11:25:49;;;;;;;2.53;1.70;;;12.40;99.90;;;;;;5041786;28;20075;-76
2022/11/05 11:28:28;;;;;;;3.25;1.77;;;12.40;99.90;;;;;;5050179;28;20076;-76
2022/11/05 11:31:20;;;;;;;4.60;1.60;;;12.50;99.90;;;;;;5045702;28;20137;-76
2022/11/05 11:33:50;;;;;;;2.00;1.60;;;12.60;99.90;;;;;;5042354;28;20099;-77
2022/11/05 11:36:18;;;;;;;3.50;1.60;;;12.80;99.90;;;;;;5044140;28;20052;-77
2022/11/05 11:38:44;;;;;;;4.10;1.88;;;12.90;99.90;;;;;;5039000;28;20052;-77
2022/11/05 11:41:10;;;;;;;2.55;1.42;;;12.90;99.90;;;;;;5038486;28;20051;-76
2022/11/05 11:43:39;;;;;;;2.72;1.35;;;12.90;99.90;;;;;;5050035;28;20041;-75
2022/11/05 11:46:19;;;;;;;2.38;1.90;;;13.00;99.90;;;;;;5042401;28;20048;-76
2022/11/05 11:48:47;;;;;;;2.97;1.63;;;13.00;99.90;;;;;;5040267;28;20052;-76
2022/11/05 11:51:33;;;;;;;1.90;1.80;;;13.00;99.90;;;;;;5043623;28;20063;-77
2022/11/05 11:54:00;;;;;;;2.53;1.02;;;13.00;99.90;;;;;;5044701;28;20052;-76
2022/11/05 11:56:27;;;;;;;3.60;1.40;;;13.10;99.90;;;;;;5048028;28;20042;-75
2022/11/05 11:58:56;;;;;;;4.32;1.70;;;13.10;99.90;;;;;;5043903;28;20053;-75
2022/11/05 12:01:39;;;;;;;3.78;1.17;;;13.10;99.90;;;;;;5047133;28;20829;-75
2022/11/05 12:04:05;;;;;;;2.15;1.50;;;13.10;99.90;;;;;;5044834;28;20048;-75
2022/11/05 12:06:38;;;;;;;1.95;1.38;;;12.90;99.90;;;;;;5043273;28;20063;-75
2022/11/05 12:09:25;;;;;;;3.83;2.08;;;12.90;99.90;;;;;;5038060;28;20067;-74
2022/11/05 12:12:14;;;;;;;1.48;1.23;;;12.80;99.90;;;;;;5044596;28;20048;-75
2022/11/05 12:15:15;;;;;;;2.10;1.27;;;12.70;99.90;;;;;;5046394;28;20071;-74
2022/11/05 12:18:03;;;;;;;1.80;1.30;;;12.70;99.90;;;;;;5041484;28;20395;-75
2022/11/05 12:20:47;;;;;;;0.93;0.85;;;12.70;99.90;;;;;;5044816;28;20037;-74
2022/11/05 12:23:52;;;;;;;4.30;1.02;;;12.70;99.90;;;;;;5045023;28;20048;-74
2022/11/05 12:26:38;;;;;;;1.80;1.33;;;12.80;99.90;;;;;;5043856;28;20079;-75
2022/11/05 12:29:49;;;;;;;1.40;1.00;;;12.70;99.90;;;;;;5044045;28;20057;-74
2022/11/05 12:32:23;;;;;;;3.70;0.95;;;12.90;99.90;;;;;;4981299;28;20080;-75
2022/11/05 12:35:04;;;;;;;1.23;0.90;;;12.90;99.90;;;;;;4982338;28;20077;-75
2022/11/05 12:37:56;;;;;;;1.42;0.80;;;12.80;99.90;;;;;;5024385;28;20061;-75
2022/11/05 12:40:40;;;;;;;1.92;0.90;;;12.80;99.90;;;;;;5041637;28;20086;-74
2022/11/05 12:43:30;;;;;;;1.48;1.27;;;12.80;99.90;;;;;;5047934;28;20095;-74
2022/11/05 12:46:21;;;;;;;1.88;0.68;;;12.80;99.90;;;;;;5041414;28;20575;-75
2022/11/05 12:49:07;;;;;;;1.75;0.95;;;12.80;99.90;;;;;;5044171;28;20049;-75
2022/11/05 12:51:38;;;;;;;2.35;1.90;;;12.80;99.90;;;;;;5042511;28;20743;-74
2022/11/05 12:54:30;;;;;;;1.00;1.00;;;12.80;99.90;;;;;;5040076;28;20159;-75
2022/11/05 12:56:59;;;;;;;2.53;1.05;;;12.80;99.90;;;;;;5042621;28;20041;-74
2022/11/05 12:59:45;;;;;;;1.73;1.20;;;12.80;99.90;;;;;;5040656;28;20045;-75
2022/11/05 13:02:43;;;;;;;3.13;1.30;;;12.80;99.90;;;;;;5047972;28;20073;-75
2022/11/05 13:05:38;;;;;;;1.48;1.10;;;12.70;99.90;;;;;;5040848;28;20055;-74
2022/11/05 13:08:15;;;;;;;2.25;1.33;;;12.60;99.90;;;;;;5041609;28;20060;-75
2022/11/05 13:10:49;;;;;;;1.73;1.40;;;12.60;99.90;;;;;;5048707;28;20105;-75
2022/11/05 13:13:37;;;;;;;2.13;1.08;;;12.60;99.90;;;;;;5043456;28;20051;-74
2022/11/05 13:16:20;;;;;;;2.25;1.13;;;12.50;99.90;;;;;;5049142;28;20148;-74
2022/11/05 13:19:01;;;;;;;1.73;1.10;;;12.50;99.90;;;;;;5036752;28;20045;-77
2022/11/05 13:21:28;;;;;;;1.45;1.00;;;12.50;99.90;;;;;;5042774;28;20051;-75
2022/11/05 13:23:59;;;;;;;2.95;1.90;;;12.60;99.90;;;;;;5046278;28;20051;-75
2022/11/05 13:26:32;;;;;;;2.63;1.60;;;12.60;99.90;;;;;;5042434;28;20068;-75
2022/11/05 13:29:09;;;;;;;2.22;1.40;;;12.60;99.90;;;;;;5045797;28;20059;-75
2022/11/05 13:31:39;;;;;;;3.03;1.02;;;12.60;99.90;;;;;;5038119;28;20341;-75
2022/11/05 13:34:12;;;;;;;3.67;1.63;;;12.60;99.90;;;;;;5040204;28;20186;-75
2022/11/05 13:39:42;;;;;;;2.65;1.98;;;12.50;99.90;;;;;;5045595;28;20045;-75
2022/11/05 13:42:35;;;;;;;2.28;1.60;;;12.50;99.90;;;;;;5038617;28;20066;-75
2022/11/05 13:45:06;;;;;;;3.88;1.83;;;12.50;99.90;;;;;;5047554;28;20036;-75
2022/11/05 13:47:47;;;;;;;2.67;1.90;;;12.50;99.90;;;;;;5042224;28;20151;-75
2022/11/05 13:50:30;;;;;;;3.38;2.28;;;12.50;99.90;;;;;;5046745;28;20103;-75
2022/11/05 13:53:05;;;;;;;5.88;3.13;;;12.50;99.90;;;;;;5046639;28;20056;-75
2022/11/05 13:55:45;;;;;;;6.43;2.15;;;12.50;99.90;;;;;;5042101;28;20045;-75
2022/11/05 13:58:20;;;;;;;3.92;2.17;;;12.50;99.90;;;;;;5048014;28;20053;-76
2022/11/05 14:01:11;;;;;;;4.47;3.30;;;12.30;99.90;;;;;;5041564;28;20083;-75